createdAt,value
2019-06-26T00:00:03.248Z,22.30
2019-06-26T00:01:37.601Z,23.12
2019-06-26T00:03:12.611Z,21.23
2019-06-26T00:04:47.004Z,21.52
2019-06-26T00:06:21.938Z,20.92
2019-06-26T00:07:56.281Z,22.70
2019-06-26T00:09:31.731Z,21.37
2019-06-26T00:11:06.100Z,22.75
2019-06-26T00:12:41.031Z,23.20
2019-06-26T00:14:15.452Z,23.00
2019-06-26T00:15:50.422Z,23.20
2019-06-26T00:17:24.781Z,21.97
2019-06-26T00:18:59.714Z,21.45
2019-06-26T00:20:34.056Z,19.20
2019-06-26T00:22:09.030Z,20.27
2019-06-26T00:23:43.377Z,21.17
2019-06-26T00:25:18.385Z,21.68
2019-06-26T00:26:52.768Z,21.00
2019-06-26T00:28:27.702Z,20.62
2019-06-26T00:30:02.064Z,20.17
2019-06-26T00:31:37.010Z,20.65
2019-06-26T00:33:11.390Z,21.23
2019-06-26T00:34:46.300Z,24.45
2019-06-26T00:36:20.780Z,23.18
2019-06-26T00:37:55.760Z,20.72
2019-06-26T00:39:30.162Z,21.42
2019-06-26T00:41:05.498Z,22.25
2019-06-26T00:42:39.946Z,20.43
2019-06-26T00:44:15.029Z,21.57
2019-06-26T00:45:49.401Z,22.13
2019-06-26T00:47:24.348Z,21.93
2019-06-26T00:48:58.674Z,21.62
2019-06-26T00:50:33.609Z,24.85
2019-06-26T00:52:07.958Z,25.45
2019-06-26T00:53:42.982Z,26.27
2019-06-26T00:55:17.332Z,25.15
2019-06-26T00:56:52.650Z,24.18
2019-06-26T00:58:27.033Z,25.08
2019-06-26T01:00:03.065Z,26.73
2019-06-26T01:01:38.034Z,25.02
2019-06-26T01:03:12.381Z,24.07
2019-06-26T01:04:48.409Z,22.45
2019-06-26T01:06:40.511Z,27.22
2019-06-26T01:08:14.848Z,23.87
2019-06-26T01:09:49.771Z,23.92
2019-06-26T01:11:24.120Z,25.85
2019-06-26T01:12:59.141Z,26.85
2019-06-26T01:14:33.485Z,25.85
2019-06-26T01:16:08.422Z,28.00
2019-06-26T01:17:42.829Z,26.80
2019-06-26T01:19:17.804Z,28.35
2019-06-26T01:20:52.132Z,24.50
2019-06-26T01:22:27.121Z,24.63
2019-06-26T01:24:01.450Z,25.60
2019-06-26T01:25:36.412Z,24.05
2019-06-26T01:27:10.751Z,23.75
2019-06-26T01:28:46.177Z,22.77
2019-06-26T01:30:20.849Z,26.90
2019-06-26T01:31:55.856Z,25.12
2019-06-26T01:33:30.209Z,22.27
2019-06-26T01:35:09.078Z,23.47
2019-06-26T01:36:43.416Z,25.45
2019-06-26T01:38:18.408Z,24.55
2019-06-26T01:39:52.752Z,23.22
2019-06-26T01:41:27.717Z,24.40
2019-06-26T01:43:02.136Z,23.75
2019-06-26T01:44:37.581Z,23.20
2019-06-26T01:46:11.931Z,21.85
2019-06-26T01:47:46.900Z,23.10
2019-06-26T01:49:21.236Z,23.65
2019-06-26T01:50:56.158Z,23.02
2019-06-26T01:52:30.508Z,23.75
2019-06-26T02:01:23.215Z,23.27
2019-06-26T02:02:58.146Z,24.47
2019-06-26T02:04:32.484Z,24.27
2019-06-26T02:06:07.424Z,28.73
2019-06-26T02:07:41.787Z,27.37
2019-06-26T02:09:16.730Z,26.60
2019-06-26T02:10:51.308Z,27.02
2019-06-26T02:12:26.374Z,25.97
2019-06-26T02:14:00.718Z,26.55
2019-06-26T02:15:35.669Z,27.52
2019-06-26T02:17:10.067Z,25.95
2019-06-26T02:18:46.048Z,24.95
2019-06-26T02:20:21.011Z,26.52
2019-06-26T02:21:55.870Z,28.95
2019-06-26T02:23:30.759Z,28.55
2019-06-26T02:25:06.221Z,26.60
2019-06-26T02:26:41.222Z,28.02
2019-06-26T02:28:15.530Z,27.30
2019-06-26T02:29:50.753Z,26.37
2019-06-26T02:31:25.095Z,26.80
2019-06-26T02:33:00.055Z,25.77
2019-06-26T02:34:34.397Z,23.35
2019-06-26T02:36:09.330Z,21.97
2019-06-26T02:37:43.678Z,21.65
2019-06-26T02:39:18.625Z,19.87
2019-06-26T02:40:53.070Z,18.75
2019-06-26T02:42:28.003Z,19.92
2019-06-26T02:44:02.427Z,21.15
2019-06-26T02:45:37.796Z,19.40
2019-06-26T02:47:19.368Z,17.27
2019-06-26T02:48:48.786Z,19.05
2019-06-26T02:50:23.136Z,17.85
2019-06-26T02:51:58.089Z,18.27
2019-06-26T02:53:32.447Z,20.00
2019-06-26T02:55:10.646Z,20.65
2019-06-26T02:56:44.997Z,20.65
2019-06-26T02:58:19.996Z,21.62
2019-06-26T02:59:54.318Z,21.82
2019-06-26T03:01:29.553Z,20.25
2019-06-26T03:03:03.896Z,20.92
2019-06-26T03:04:38.868Z,22.55
2019-06-26T03:06:13.285Z,19.90
2019-06-26T03:07:48.218Z,21.15
2019-06-26T03:21:24.751Z,22.65
2019-06-26T03:23:00.640Z,21.57
2019-06-26T03:24:34.994Z,22.00
2019-06-26T03:26:09.922Z,22.13
2019-06-26T03:27:44.300Z,22.50
2019-06-26T03:29:19.232Z,21.77
2019-06-26T03:30:53.582Z,20.62
2019-06-26T03:32:29.124Z,21.52
2019-06-26T03:34:04.677Z,18.82
2019-06-26T03:35:40.854Z,19.98
2019-06-26T03:37:15.421Z,17.65
2019-06-26T03:38:50.332Z,18.67
2019-06-26T03:40:24.789Z,17.80
2019-06-26T03:41:59.812Z,16.42
2019-06-26T03:43:35.566Z,16.45
2019-06-26T03:45:24.689Z,15.40
2019-06-26T03:46:47.143Z,15.55
2019-06-26T03:48:22.093Z,16.73
2019-06-26T03:49:56.424Z,15.00
2019-06-26T03:51:31.356Z,15.53
2019-06-26T03:53:05.826Z,15.20
2019-06-26T03:54:40.865Z,14.15
2019-06-26T03:56:15.214Z,13.72
2019-06-26T03:57:50.158Z,14.20
2019-06-26T03:59:24.603Z,14.45
2019-06-26T04:00:59.680Z,13.25
2019-06-26T04:02:34.084Z,12.85
2019-06-26T04:04:09.022Z,13.40
2019-06-26T04:05:43.378Z,13.08
2019-06-26T04:07:18.300Z,12.98
2019-06-26T04:08:52.690Z,14.30
2019-06-26T04:10:27.653Z,17.07
2019-06-26T04:12:02.040Z,15.78
2019-06-26T04:13:36.944Z,16.48
2019-06-26T04:15:11.435Z,16.15
2019-06-26T04:16:46.332Z,15.35
2019-06-26T04:18:21.092Z,16.80
2019-06-26T04:19:56.058Z,16.60
2019-06-26T04:21:30.400Z,15.13
2019-06-26T04:23:05.325Z,17.15
2019-06-26T04:24:39.734Z,14.68
2019-06-26T04:26:14.672Z,15.28
2019-06-26T04:27:49.123Z,14.87
2019-06-26T04:29:24.082Z,15.50
2019-06-26T04:30:58.473Z,15.60
2019-06-26T04:32:33.404Z,13.48
2019-06-26T04:34:07.756Z,12.35
2019-06-26T04:35:42.797Z,12.55
2019-06-26T04:37:17.148Z,13.35
2019-06-26T04:38:52.119Z,13.58
2019-06-26T04:40:26.466Z,14.73
2019-06-26T04:42:01.427Z,14.65
2019-06-26T04:43:35.739Z,14.23
2019-06-26T04:45:11.004Z,14.00
2019-06-26T04:46:45.394Z,14.18
2019-06-26T04:48:20.499Z,13.83
2019-06-26T04:49:55.263Z,13.90
2019-06-26T04:51:30.219Z,13.30
2019-06-26T04:53:04.563Z,13.48
2019-06-26T04:54:39.568Z,13.75
2019-06-26T04:56:13.931Z,13.90
2019-06-26T04:57:48.941Z,13.95
2019-06-26T04:59:23.292Z,13.20
2019-06-26T05:00:58.265Z,14.50
2019-06-26T05:02:32.690Z,13.48
2019-06-26T05:04:07.620Z,14.43
2019-06-26T05:05:44.412Z,14.50
2019-06-26T05:07:19.048Z,14.38
2019-06-26T05:08:53.393Z,11.70
2019-06-26T05:10:28.332Z,13.58
2019-06-26T05:12:02.810Z,10.60
2019-06-26T05:13:37.741Z,11.08
2019-06-26T05:15:12.619Z,10.38
2019-06-26T05:16:47.561Z,10.88
2019-06-26T05:18:21.883Z,11.30
2019-06-26T05:19:56.808Z,10.53
2019-06-26T05:21:31.183Z,11.03
2019-06-26T05:23:06.116Z,11.35
2019-06-26T05:24:40.495Z,11.08
2019-06-26T05:26:16.345Z,9.13
2019-06-26T05:27:50.671Z,9.65
2019-06-26T05:29:26.393Z,11.03
2019-06-26T05:31:00.796Z,12.05
2019-06-26T05:32:35.726Z,11.63
2019-06-26T05:34:11.148Z,12.05
2019-06-26T05:35:46.292Z,12.85
2019-06-26T05:37:21.937Z,11.50
2019-06-26T05:38:56.871Z,11.38
2019-06-26T05:40:31.217Z,11.48
2019-06-26T05:42:06.898Z,11.45
2019-06-26T05:43:41.594Z,11.70
2019-06-26T05:45:17.024Z,10.82
2019-06-26T05:46:51.423Z,10.78
2019-06-26T05:48:26.766Z,11.65
2019-06-26T06:24:29.037Z,9.28
2019-06-26T06:26:03.962Z,9.53
2019-06-26T06:27:38.306Z,10.08
2019-06-26T06:29:13.310Z,9.80
2019-06-26T06:30:47.625Z,8.70
2019-06-26T06:32:22.574Z,9.00
2019-06-26T06:33:56.950Z,9.03
2019-06-26T06:35:31.865Z,9.23
2019-06-26T06:37:06.193Z,8.98
2019-06-26T06:38:41.097Z,8.45
2019-06-26T06:40:15.753Z,8.33
2019-06-26T06:41:50.671Z,8.70
2019-06-26T06:43:24.992Z,8.15
2019-06-26T06:44:59.991Z,8.28
2019-06-26T06:46:34.359Z,8.15
2019-06-26T06:48:10.007Z,8.18
2019-06-26T06:49:44.666Z,8.33
2019-06-26T06:51:19.580Z,8.30
2019-06-26T06:52:53.961Z,8.05
2019-06-26T06:54:28.902Z,8.20
2019-06-26T06:56:03.234Z,8.68
2019-06-26T06:57:38.286Z,7.33
2019-06-26T06:59:12.610Z,7.50
2019-06-26T07:00:47.584Z,8.05
2019-06-26T07:02:21.932Z,7.95
2019-06-26T07:03:56.890Z,7.58
2019-06-26T07:05:31.201Z,7.92
2019-06-26T07:07:06.122Z,8.10
2019-06-26T07:08:40.468Z,7.20
2019-06-26T07:10:15.404Z,7.45
2019-06-26T07:11:50.121Z,8.10
2019-06-26T07:13:24.774Z,7.83
2019-06-26T07:14:59.105Z,7.28
2019-06-26T07:16:34.071Z,7.25
2019-06-26T07:18:08.373Z,7.50
2019-06-26T07:19:43.298Z,7.65
2019-06-26T07:21:17.622Z,6.45
2019-06-26T07:22:52.564Z,6.62
2019-06-26T07:24:26.888Z,6.10
2019-06-26T07:26:02.216Z,6.15
2019-06-26T07:27:37.605Z,6.30
2019-06-26T07:29:12.552Z,5.42
2019-06-26T07:30:46.924Z,5.87
2019-06-26T07:32:21.833Z,5.15
2019-06-26T07:33:56.159Z,4.78
2019-06-26T07:35:31.074Z,5.17
2019-06-26T07:37:05.502Z,5.55
2019-06-26T07:38:40.419Z,5.40
2019-06-26T07:40:17.053Z,6.20
2019-06-26T07:41:51.999Z,5.45
2019-06-26T07:43:26.327Z,5.10
2019-06-26T07:45:01.249Z,5.67
2019-06-26T07:46:35.631Z,5.62
2019-06-26T07:48:10.613Z,5.80
2019-06-26T07:49:45.276Z,4.95
2019-06-26T07:51:20.238Z,5.40
2019-06-26T07:52:54.570Z,5.62
2019-06-26T07:54:29.478Z,5.47
2019-06-26T07:56:03.913Z,5.45
2019-06-26T07:57:38.862Z,6.08
2019-06-26T07:59:13.183Z,6.00
2019-06-26T08:00:48.100Z,6.42
2019-06-26T08:02:22.440Z,6.17
2019-06-26T08:03:57.419Z,6.50
2019-06-26T08:05:31.721Z,6.55
2019-06-26T08:07:06.639Z,6.37
2019-06-26T08:08:40.967Z,6.22
2019-06-26T08:10:16.324Z,6.17
2019-06-26T08:11:50.648Z,6.83
2019-06-26T08:13:25.558Z,6.20
2019-06-26T08:14:59.940Z,6.62
2019-06-26T08:16:34.924Z,6.78
2019-06-26T08:18:09.255Z,6.95
2019-06-26T08:19:44.184Z,7.08
2019-06-26T08:21:18.516Z,6.45
2019-06-26T08:22:53.535Z,5.92
2019-06-26T08:24:27.868Z,6.67
2019-06-26T08:26:02.834Z,6.67
2019-06-26T08:27:37.575Z,6.15
2019-06-26T08:29:12.887Z,6.50
2019-06-26T08:30:47.218Z,6.42
2019-06-26T08:32:25.096Z,7.55
2019-06-26T08:33:58.238Z,6.50
2019-06-26T08:35:33.159Z,6.92
2019-06-26T08:37:07.495Z,7.20
2019-06-26T08:38:42.443Z,7.05
2019-06-26T08:40:17.429Z,7.58
2019-06-26T08:41:52.349Z,7.03
2019-06-26T08:43:26.660Z,7.35
2019-06-26T08:45:02.114Z,6.70
2019-06-26T08:46:36.423Z,7.33
2019-06-26T08:48:22.600Z,7.65
2019-06-26T08:49:47.632Z,7.50
2019-06-26T08:51:22.967Z,7.28
2019-06-26T08:52:57.317Z,6.08
2019-06-26T08:54:32.221Z,6.87
2019-06-26T08:56:06.523Z,6.55
2019-06-26T08:57:41.474Z,6.75
2019-06-26T08:59:15.814Z,6.12
2019-06-26T09:00:50.756Z,6.37
2019-06-26T09:02:25.095Z,6.55
2019-06-26T09:04:00.056Z,6.83
2019-06-26T09:05:47.616Z,5.75
2019-06-26T09:07:11.031Z,6.03
2019-06-26T09:08:45.373Z,5.20
2019-06-26T09:10:20.381Z,5.70
2019-06-26T09:11:54.713Z,5.28
2019-06-26T09:13:29.408Z,6.33
2019-06-26T09:15:04.835Z,5.75
2019-06-26T09:16:39.831Z,5.65
2019-06-26T09:18:14.208Z,5.58
2019-06-26T09:19:49.121Z,6.00
2019-06-26T09:21:23.458Z,6.15
2019-06-26T09:22:58.407Z,6.10
2019-06-26T09:24:32.750Z,6.30
2019-06-26T09:26:07.736Z,6.65
2019-06-26T09:27:42.068Z,6.30
2019-06-26T09:29:17.016Z,6.45
2019-06-26T09:30:51.345Z,5.62
2019-06-26T09:32:26.263Z,5.40
2019-06-26T09:34:00.588Z,6.53
2019-06-26T09:35:35.560Z,5.83
2019-06-26T09:37:09.915Z,5.67
2019-06-26T09:38:44.818Z,5.92
2019-06-26T09:40:19.297Z,5.17
2019-06-26T09:41:54.209Z,5.75
2019-06-26T09:43:28.533Z,6.08
2019-06-26T09:45:03.554Z,5.80
2019-06-26T09:46:37.903Z,6.20
2019-06-26T09:48:12.893Z,6.05
2019-06-26T09:49:47.219Z,6.37
2019-06-26T09:51:22.451Z,8.90
2019-06-26T09:52:56.875Z,8.28
2019-06-26T09:54:31.810Z,7.03
2019-06-26T09:56:06.229Z,7.25
2019-06-26T09:57:41.139Z,7.22
2019-06-26T09:59:15.511Z,6.60
2019-06-26T10:00:50.429Z,7.00
2019-06-26T10:02:25.156Z,5.65
2019-06-26T10:04:00.067Z,8.93
2019-06-26T10:05:34.435Z,6.42
2019-06-26T10:07:09.370Z,12.13
2019-06-26T10:08:43.754Z,7.05
2019-06-26T10:10:18.947Z,6.20
2019-06-26T10:11:53.319Z,6.22
2019-06-26T10:13:28.230Z,6.30
2019-06-26T10:15:02.897Z,6.20
2019-06-26T10:16:37.815Z,6.22
2019-06-26T10:18:12.177Z,6.75
2019-06-26T10:19:47.145Z,6.62
2019-06-26T10:21:23.696Z,7.58
2019-06-26T10:22:58.145Z,6.97
2019-06-26T10:24:32.475Z,7.15
2019-06-26T10:26:07.495Z,7.00
2019-06-26T10:27:41.850Z,6.97
2019-06-26T10:29:16.780Z,6.78
2019-06-26T10:30:51.119Z,6.97
2019-06-26T10:32:26.034Z,6.90
2019-06-26T10:34:00.356Z,7.20
2019-06-26T10:35:35.306Z,7.03
2019-06-26T10:37:09.630Z,6.95
2019-06-26T10:38:44.581Z,7.12
2019-06-26T10:40:18.946Z,6.80
2019-06-26T10:41:55.209Z,7.00
2019-06-26T10:43:29.707Z,7.35
2019-06-26T10:45:06.519Z,7.22
2019-06-26T10:46:40.887Z,7.37
2019-06-26T10:48:15.820Z,7.92
2019-06-26T10:49:50.142Z,8.25
2019-06-26T10:51:25.422Z,8.35
2019-06-26T10:52:59.751Z,8.65
2019-06-26T10:54:34.707Z,8.33
2019-06-26T10:56:09.022Z,8.30
2019-06-26T10:57:44.296Z,7.87
2019-06-26T10:59:18.774Z,7.97
2019-06-26T11:00:53.728Z,8.08
2019-06-26T11:02:28.068Z,8.55
2019-06-26T11:04:02.924Z,10.60
2019-06-26T11:05:37.266Z,8.20
2019-06-26T11:07:12.227Z,8.35
2019-06-26T11:08:46.523Z,8.85
2019-06-26T11:10:23.407Z,8.50
2019-06-26T11:11:57.809Z,8.05
2019-06-26T11:13:32.775Z,7.58
2019-06-26T11:15:08.419Z,7.50
2019-06-26T11:16:43.710Z,8.50
2019-06-26T11:18:18.277Z,8.05
2019-06-26T11:19:55.585Z,7.47
2019-06-26T11:21:29.496Z,7.78
2019-06-26T11:23:04.841Z,7.87
2019-06-26T11:24:40.327Z,8.00
2019-06-26T11:26:15.234Z,8.30
2019-06-26T11:27:49.556Z,7.55
2019-06-26T11:29:24.754Z,8.55
2019-06-26T11:30:59.150Z,8.30
2019-06-26T11:32:34.099Z,7.80
2019-06-26T11:34:08.426Z,8.65
2019-06-26T11:35:43.527Z,8.85
2019-06-26T11:37:17.881Z,8.00
2019-06-26T11:38:52.797Z,8.30
2019-06-26T11:40:27.317Z,8.50
2019-06-26T11:42:02.515Z,9.03
2019-06-26T11:43:36.875Z,7.95
2019-06-26T11:45:12.268Z,8.35
2019-06-26T11:46:46.712Z,8.38
2019-06-26T11:48:21.910Z,7.75
2019-06-26T11:50:00.327Z,7.95
2019-06-26T11:51:32.866Z,8.50
2019-06-26T11:53:07.277Z,8.48
2019-06-26T11:54:42.529Z,7.87
2019-06-26T11:56:16.960Z,8.28
2019-06-26T11:57:51.983Z,7.25
2019-06-26T11:59:27.269Z,7.70
2019-06-26T12:01:04.093Z,7.87
2019-06-26T12:02:38.498Z,7.83
2019-06-26T12:04:13.163Z,7.50
2019-06-26T12:05:47.488Z,7.30
2019-06-26T12:07:22.954Z,7.08
2019-06-26T12:08:57.275Z,7.37
2019-06-26T12:10:31.897Z,7.35
2019-06-26T12:12:06.226Z,7.90
2019-06-26T12:13:41.453Z,7.22
2019-06-26T12:15:17.481Z,7.33
2019-06-26T12:16:52.417Z,7.62
2019-06-26T12:18:26.735Z,7.90
2019-06-26T12:20:17.149Z,8.05
2019-06-26T12:21:37.821Z,7.67
2019-06-26T12:23:12.735Z,7.35
2019-06-26T12:24:47.059Z,8.18
2019-06-26T12:26:22.376Z,8.30
2019-06-26T12:27:56.696Z,7.83
2019-06-26T12:29:33.041Z,7.50
2019-06-26T12:31:09.087Z,7.00
2019-06-26T12:33:01.558Z,7.42
2019-06-26T12:34:20.455Z,7.92
2019-06-26T12:35:55.361Z,7.85
2019-06-26T12:37:37.681Z,6.72
2019-06-26T12:39:10.073Z,7.22
2019-06-26T12:40:44.403Z,7.30
2019-06-26T12:42:19.388Z,7.30
2019-06-26T12:43:53.702Z,6.83
2019-06-26T12:45:28.779Z,7.15
2019-06-26T12:47:03.117Z,7.80
2019-06-26T12:48:39.574Z,7.40
2019-06-26T12:50:14.683Z,7.60
2019-06-26T12:51:49.985Z,6.90
2019-06-26T12:53:24.703Z,7.30
2019-06-26T12:54:59.614Z,7.20
2019-06-26T12:56:33.951Z,6.92
2019-06-26T12:58:14.762Z,6.92
2019-06-26T12:59:56.577Z,6.95
2019-06-26T13:01:24.917Z,7.10
2019-06-26T13:02:57.937Z,7.03
2019-06-26T13:04:33.276Z,7.10
2019-06-26T13:06:07.603Z,7.30
2019-06-26T13:07:43.312Z,7.35
2019-06-26T13:09:17.619Z,7.62
2019-06-26T13:10:52.872Z,7.17
2019-06-26T13:12:27.179Z,7.30
2019-06-26T13:14:03.265Z,7.83
2019-06-26T13:15:37.805Z,7.33
2019-06-26T13:17:12.837Z,8.00
2019-06-26T13:18:47.242Z,8.10
2019-06-26T13:20:22.149Z,7.22
2019-06-26T13:21:56.471Z,7.30
2019-06-26T13:23:31.801Z,7.62
2019-06-26T13:25:07.696Z,6.92
2019-06-26T13:26:42.638Z,6.60
2019-06-26T13:28:16.972Z,6.70
2019-06-26T13:29:52.100Z,6.90
2019-06-26T13:31:26.434Z,7.83
2019-06-26T13:33:01.127Z,7.55
2019-06-26T13:34:35.453Z,6.28
2019-06-26T13:36:10.658Z,6.08
2019-06-26T13:37:44.983Z,7.20
2019-06-26T13:39:20.098Z,7.03
2019-06-26T13:40:54.433Z,6.78
2019-06-26T13:42:29.603Z,6.50
2019-06-26T13:44:03.935Z,6.60
2019-06-26T13:45:38.878Z,6.33
2019-06-26T13:47:13.199Z,6.25
2019-06-26T13:48:48.325Z,6.53
2019-06-26T13:50:22.648Z,6.42
2019-06-26T13:51:57.595Z,6.05
2019-06-26T13:53:31.972Z,6.08
2019-06-26T13:55:07.813Z,6.70
2019-06-26T13:56:42.142Z,6.40
2019-06-26T13:58:17.101Z,7.05
2019-06-26T13:59:51.540Z,6.33
2019-06-26T14:01:26.801Z,6.78
2019-06-26T14:03:01.245Z,6.37
2019-06-26T14:04:36.127Z,7.10
2019-06-26T14:06:10.459Z,8.00
2019-06-26T14:07:45.536Z,6.75
2019-06-26T14:09:19.866Z,6.95
2019-06-26T14:10:54.846Z,6.15
2019-06-26T14:12:29.181Z,6.70
2019-06-26T14:14:04.368Z,7.12
2019-06-26T14:15:38.757Z,6.75
2019-06-26T14:17:13.666Z,7.00
2019-06-26T14:18:47.993Z,6.90
2019-06-26T14:20:23.479Z,6.62
2019-06-26T14:21:57.770Z,8.00
2019-06-26T14:23:32.683Z,8.45
2019-06-26T14:25:08.447Z,9.43
2019-06-26T14:26:43.556Z,8.75
2019-06-26T14:28:19.707Z,8.75
2019-06-26T14:29:54.518Z,9.13
2019-06-26T14:31:53.244Z,6.40
2019-06-26T14:33:28.157Z,5.05
2019-06-26T14:35:05.021Z,4.50
2019-06-26T14:36:41.198Z,4.95
2019-06-26T14:38:15.683Z,3.75
2019-06-26T14:39:50.590Z,3.33
2019-06-26T14:41:25.282Z,3.33
2019-06-26T14:43:00.195Z,4.25
2019-06-26T14:44:34.769Z,2.85
2019-06-26T14:46:10.131Z,4.45
2019-06-26T14:47:44.457Z,4.17
2019-06-26T14:49:19.391Z,3.95
2019-06-26T14:50:53.842Z,4.42
2019-06-26T14:52:29.801Z,5.05
2019-06-26T14:54:04.228Z,5.20
2019-06-26T14:55:39.140Z,7.15
2019-06-26T14:57:13.780Z,5.37
2019-06-26T14:58:48.740Z,5.08
2019-06-26T15:00:23.173Z,6.03
2019-06-26T15:01:58.976Z,6.42
2019-06-26T15:03:33.422Z,6.03
2019-06-26T15:05:09.369Z,5.12
2019-06-26T15:06:43.690Z,5.83
2019-06-26T15:08:18.602Z,5.35
2019-06-26T15:09:53.168Z,4.55
2019-06-26T15:11:28.120Z,4.20
2019-06-26T15:13:02.529Z,4.17
2019-06-26T15:14:37.471Z,4.30
2019-06-26T15:16:12.154Z,3.95
2019-06-26T15:17:47.061Z,4.10
2019-06-26T15:19:21.395Z,3.58
2019-06-26T15:20:56.339Z,4.45
2019-06-26T15:22:32.311Z,3.60
2019-06-26T15:24:07.237Z,3.67
2019-06-26T15:25:41.560Z,3.90
2019-06-26T15:27:16.874Z,5.12
2019-06-26T15:28:51.450Z,4.22
2019-06-26T15:30:27.090Z,4.42
2019-06-26T15:32:01.436Z,4.17
2019-06-26T15:33:36.850Z,4.37
2019-06-26T15:35:12.079Z,5.30
2019-06-26T15:36:47.060Z,4.50
2019-06-26T15:38:21.499Z,4.67
2019-06-26T15:39:56.480Z,4.10
2019-06-26T15:41:31.163Z,3.58
2019-06-26T15:43:05.920Z,3.90
2019-06-26T15:44:40.294Z,3.90
2019-06-26T15:46:15.209Z,5.03
2019-06-26T15:47:49.744Z,3.42
2019-06-26T15:49:24.661Z,4.70
2019-06-26T15:50:59.040Z,4.35
2019-06-26T15:52:33.962Z,4.17
2019-06-26T15:54:08.516Z,4.17
2019-06-26T15:55:43.421Z,4.22
2019-06-26T15:57:17.817Z,4.37
2019-06-26T15:58:53.123Z,4.60
2019-06-26T16:00:27.709Z,5.42
2019-06-26T16:02:02.626Z,5.35
2019-06-26T16:03:36.998Z,5.58
2019-06-26T16:05:12.554Z,5.50
2019-06-26T16:06:47.150Z,4.95
2019-06-26T16:08:22.089Z,5.28
2019-06-26T16:09:56.409Z,4.85
2019-06-26T16:11:31.392Z,4.65
2019-06-26T16:13:05.994Z,4.97
2019-06-26T16:14:41.197Z,4.80
2019-06-26T16:16:15.596Z,4.50
2019-06-26T16:17:57.686Z,4.15
2019-06-26T16:19:32.849Z,4.30
2019-06-26T16:21:08.707Z,4.45
2019-06-26T16:22:43.605Z,4.42
2019-06-26T16:24:17.974Z,4.70
2019-06-26T16:25:53.278Z,4.90
2019-06-26T16:27:27.602Z,4.92
2019-06-26T16:29:02.514Z,4.08
2019-06-26T16:30:36.947Z,4.83
2019-06-26T16:32:12.366Z,3.80
2019-06-26T16:33:46.686Z,3.77
2019-06-26T16:35:21.338Z,4.72
2019-06-26T16:36:55.699Z,4.83
2019-06-26T16:38:31.142Z,4.65
2019-06-26T16:40:08.988Z,4.50
2019-06-26T16:41:44.202Z,4.55
2019-06-26T16:43:18.579Z,5.12
2019-06-26T16:44:53.709Z,5.25
2019-06-26T16:46:28.034Z,5.40
2019-06-26T16:48:02.947Z,5.03
2019-06-26T16:49:37.310Z,5.75
2019-06-26T16:51:12.797Z,5.03
2019-06-26T16:52:49.546Z,6.12
2019-06-26T16:54:26.630Z,5.67
2019-06-26T16:56:01.003Z,5.25
2019-06-26T16:57:37.238Z,5.37
2019-06-26T16:59:11.579Z,5.17
2019-06-26T17:00:46.540Z,5.62
2019-06-26T17:02:20.873Z,5.15
2019-06-26T17:03:56.309Z,5.10
2019-06-26T17:05:30.632Z,5.35
2019-06-26T17:07:05.689Z,4.55
2019-06-26T17:08:40.099Z,4.62
2019-06-26T17:10:15.571Z,5.17
2019-06-26T17:11:49.899Z,4.50
2019-06-26T17:13:24.881Z,4.30
2019-06-26T17:14:59.208Z,4.83
2019-06-26T17:16:34.351Z,4.65
2019-06-26T17:18:08.685Z,4.42
2019-06-26T17:19:43.612Z,4.62
2019-06-26T17:21:17.940Z,4.10
2019-06-26T17:23:05.094Z,5.22
2019-06-26T17:24:30.019Z,4.55
2019-06-26T17:26:06.359Z,5.55
2019-06-26T17:27:40.699Z,4.90
2019-06-26T17:29:16.129Z,5.10
2019-06-26T17:30:52.844Z,4.97
2019-06-26T17:32:27.092Z,4.90
2019-06-26T17:34:01.410Z,5.00
2019-06-26T17:35:36.652Z,4.65
2019-06-26T17:37:10.975Z,5.47
2019-06-26T17:38:45.930Z,5.00
2019-06-26T17:40:21.046Z,5.33
2019-06-26T17:41:56.350Z,4.55
2019-06-26T17:43:32.346Z,4.58
2019-06-26T17:45:08.266Z,4.70
2019-06-26T17:46:42.590Z,4.55
2019-06-26T17:48:17.789Z,4.90
2019-06-26T17:49:52.314Z,5.03
2019-06-26T17:51:27.402Z,4.45
2019-06-26T17:53:01.726Z,4.22
2019-06-26T17:54:36.914Z,4.85
2019-06-26T17:56:11.243Z,5.53
2019-06-26T17:57:47.629Z,5.70
2019-06-26T17:59:22.374Z,4.83
2019-06-26T18:00:57.501Z,5.45
2019-06-26T18:02:31.827Z,5.20
2019-06-26T18:04:06.819Z,5.20
2019-06-26T18:05:42.405Z,8.58
2019-06-26T18:07:17.173Z,6.30
2019-06-26T18:08:51.580Z,5.05
2019-06-26T18:10:26.533Z,5.15
2019-06-26T18:12:00.875Z,5.87
2019-06-26T18:13:36.092Z,7.45
2019-06-26T18:15:10.627Z,10.68
2019-06-26T18:16:45.667Z,12.47
2019-06-26T18:18:20.091Z,15.13
2019-06-26T18:19:55.429Z,12.90
2019-06-26T18:21:29.846Z,8.80
2019-06-26T18:23:07.847Z,8.55
2019-06-26T18:24:41.863Z,7.62
2019-06-26T18:26:22.371Z,7.97
2019-06-26T18:27:56.716Z,7.00
2019-06-26T18:29:31.688Z,6.87
2019-06-26T18:31:06.012Z,4.97
2019-06-26T18:32:41.231Z,5.28
2019-06-26T18:34:15.630Z,5.92
2019-06-26T18:35:50.576Z,6.15
2019-06-26T18:37:24.904Z,6.60
2019-06-26T18:39:00.317Z,5.90
2019-06-26T18:40:34.644Z,5.95
2019-06-26T18:42:09.594Z,6.00
2019-06-26T18:43:43.967Z,6.17
2019-06-26T18:45:19.388Z,6.33
2019-06-26T18:46:53.720Z,6.45
2019-06-26T18:48:28.986Z,7.50
2019-06-26T18:50:04.705Z,7.42
2019-06-26T18:51:39.772Z,7.40
2019-06-26T18:53:15.289Z,7.75
2019-06-26T18:54:51.159Z,7.80
2019-06-26T18:56:25.487Z,6.35
2019-06-26T18:58:00.880Z,12.65
2019-06-26T18:59:36.835Z,7.65
2019-06-26T19:01:11.551Z,7.85
2019-06-26T19:02:45.881Z,9.70
2019-06-26T19:04:21.691Z,12.47
2019-06-26T19:05:56.059Z,6.87
2019-06-26T19:07:31.067Z,6.45
2019-06-26T19:09:06.841Z,6.25
2019-06-26T19:10:42.350Z,7.25
2019-06-26T19:12:16.702Z,8.05
2019-06-26T19:13:51.626Z,7.60
2019-06-26T19:15:26.055Z,7.65
2019-06-26T19:17:01.500Z,9.33
2019-06-26T19:18:35.840Z,7.90
2019-06-26T19:20:11.419Z,8.00
2019-06-26T19:21:45.766Z,7.40
2019-06-26T19:23:20.939Z,7.05
2019-06-26T19:24:55.322Z,8.40
2019-06-26T19:26:30.282Z,8.38
2019-06-26T19:28:04.611Z,9.60
2019-06-26T19:29:39.978Z,10.48
2019-06-26T19:31:14.380Z,8.95
2019-06-26T19:32:49.304Z,9.23
2019-06-26T19:34:23.638Z,8.98
2019-06-26T19:36:00.502Z,14.43
2019-06-26T19:37:35.051Z,14.68
2019-06-26T19:39:09.737Z,13.15
2019-06-26T19:40:44.108Z,11.75
2019-06-26T19:42:19.456Z,21.97
2019-06-26T19:43:53.887Z,22.95
2019-06-26T19:45:28.912Z,23.73
2019-06-26T19:47:03.401Z,22.02
2019-06-26T19:48:38.366Z,19.35
2019-06-26T19:50:15.952Z,18.82
2019-06-26T19:51:52.376Z,14.47
2019-06-26T19:53:26.788Z,15.48
2019-06-26T19:55:01.947Z,16.05
2019-06-26T19:56:36.299Z,15.32
2019-06-26T19:58:10.946Z,15.68
2019-06-26T19:59:45.399Z,18.62
2019-06-26T20:01:20.418Z,15.90
2019-06-26T20:02:56.114Z,10.23
2019-06-26T20:04:31.037Z,13.10
2019-06-26T20:06:05.603Z,17.87
2019-06-26T20:07:40.845Z,18.95
2019-06-26T20:09:16.649Z,12.93
2019-06-26T20:10:51.619Z,11.50
2019-06-26T20:12:25.959Z,9.33
2019-06-26T20:14:02.595Z,9.18
2019-06-26T20:15:36.926Z,8.98
2019-06-26T20:17:13.351Z,9.55
2019-06-26T20:18:47.697Z,12.55
2019-06-26T20:20:22.908Z,12.53
2019-06-26T20:21:57.224Z,11.73
2019-06-26T20:23:32.323Z,10.78
2019-06-26T20:25:09.328Z,11.83
2019-06-26T20:26:44.525Z,11.83
2019-06-26T20:28:18.901Z,10.80
2019-06-26T20:29:54.438Z,11.63
2019-06-26T20:31:28.793Z,12.47
2019-06-26T20:33:04.162Z,10.80
2019-06-26T20:34:39.890Z,11.18
2019-06-26T20:36:14.928Z,12.43
2019-06-26T20:37:49.286Z,11.85
2019-06-26T20:39:24.481Z,11.65
2019-06-26T20:40:58.860Z,11.12
2019-06-26T20:42:33.966Z,11.63
2019-06-26T20:44:08.322Z,12.85
2019-06-26T20:45:43.770Z,12.78
2019-06-26T20:47:18.122Z,11.60
2019-06-26T20:48:53.049Z,11.60
2019-06-26T20:50:27.435Z,9.53
2019-06-26T20:52:03.890Z,10.78
2019-06-26T20:53:38.274Z,9.85
2019-06-26T20:55:13.304Z,9.48
2019-06-26T20:56:49.141Z,10.10
2019-06-26T20:58:24.521Z,11.78
2019-06-26T20:59:58.934Z,9.68
2019-06-26T21:01:33.861Z,9.78
2019-06-26T21:03:08.214Z,10.35
2019-06-26T21:04:44.484Z,9.73
2019-06-26T21:06:18.925Z,10.25
2019-06-26T21:07:53.842Z,9.88
2019-06-26T21:09:28.179Z,10.43
2019-06-26T21:11:03.325Z,11.15
2019-06-26T21:12:37.708Z,10.28
2019-06-26T21:14:12.646Z,11.53
2019-06-26T21:15:47.036Z,10.55
2019-06-26T21:17:25.590Z,10.40
2019-06-26T21:18:58.551Z,10.78
2019-06-26T21:20:34.655Z,10.32
2019-06-26T21:22:09.199Z,11.30
2019-06-26T21:23:45.824Z,10.82
2019-06-26T21:25:20.280Z,10.65
2019-06-26T21:26:55.276Z,9.70
2019-06-26T21:28:29.670Z,10.32
2019-06-26T21:30:05.773Z,9.83
2019-06-26T21:31:40.124Z,12.18
2019-06-26T21:33:15.161Z,11.50
2019-06-26T21:34:49.588Z,11.45
2019-06-26T21:36:25.080Z,11.30
2019-06-26T21:37:59.421Z,11.30
2019-06-26T21:39:34.416Z,10.82
2019-06-26T21:41:09.767Z,9.78
2019-06-26T21:42:45.079Z,10.13